Time;durP1;ratioP1;P1;durP2;ratioP2;P2;SDS_P1;SDS_P2;PMS_P1;PMS_P2;Temp;Humidity;BMP_temperature;BMP_pressure;BME280_temperature;BME280_humidity;BME280_pressure;Samples;Min_cycle;Max_cycle;Signal;HPM_P1;HPM_P2
2021/11/02 00:00:51;;;;;;;28.38;15.98;;;;;;;;;;4879913;29;20032;-78
2021/11/02 00:03:17;;;;;;;31.95;17.27;;;;;;;;;;4880383;29;20025;-80
2021/11/02 00:05:44;;;;;;;33.33;17.38;;;;;;;;;;4863168;29;20029;-81
2021/11/02 00:08:10;;;;;;;31.40;16.10;;;;;;;;;;4879811;29;20029;-79
2021/11/02 00:10:37;;;;;;;30.10;15.90;;;;;;;;;;4879845;29;20081;-83
2021/11/02 00:13:05;;;;;;;29.67;15.75;;;;;;;;;;4879839;29;20482;-81
2021/11/02 00:15:33;;;;;;;30.00;16.70;;;;;;;;;;4880347;29;20104;-82
2021/11/02 00:18:04;;;;;;;36.67;17.20;;;;;;;;;;4880306;29;20056;-79
2021/11/02 00:20:32;;;;;;;36.03;17.65;;;;;;;;;;4879642;29;20402;-79
2021/11/02 00:23:01;;;;;;;31.15;15.80;;;;;;;;;;4879808;29;20029;-82
2021/11/02 00:25:31;;;;;;;33.97;15.80;;;;;;;;;;4880299;29;20486;-81
2021/11/02 00:28:07;;;;;;;32.60;15.13;;;;;;;;;;4879690;29;20029;-78
2021/11/02 00:30:34;;;;;;;33.42;14.20;;;;;;;;;;4862942;29;20036;-78
2021/11/02 00:33:01;;;;;;;31.80;16.08;;;;;;;;;;4879604;29;20120;-79
2021/11/02 00:35:27;;;;;;;32.70;16.55;;;;;;;;;;4879477;29;20021;-78
2021/11/02 00:37:55;;;;;;;33.65;16.88;;;;;;;;;;4879952;29;20032;-79
2021/11/02 00:40:22;;;;;;;34.55;17.42;;;;;;;;;;4879313;29;20041;-78
2021/11/02 00:45:28;;;;;;;32.72;16.92;;;;;;;;;;4879462;29;20029;-79
2021/11/02 00:47:55;;;;;;;32.70;17.20;;;;;;;;;;4862621;29;20032;-80
2021/11/02 00:50:21;;;;;;;35.72;16.77;;;;;;;;;;4879524;29;20033;-80
2021/11/02 00:52:48;;;;;;;34.28;16.65;;;;;;;;;;4880049;29;20036;-81
2021/11/02 00:55:14;;;;;;;34.03;16.95;;;;;;;;;;4862936;29;20554;-80
2021/11/02 00:57:41;;;;;;;30.52;16.55;;;;;;;;;;4862788;29;20048;-81
2021/11/02 01:00:10;;;;;;;36.83;18.08;;;;;;;;;;4862857;29;20386;-81
2021/11/02 01:02:37;;;;;;;39.72;17.42;;;;;;;;;;4862754;29;20061;-80
2021/11/02 01:05:04;;;;;;;33.70;17.52;;;;;;;;;;4863820;29;20093;-80
2021/11/02 01:07:31;;;;;;;35.45;16.70;;;;;;;;;;4882864;29;20025;-79
2021/11/02 01:10:00;;;;;;;39.55;17.17;;;;;;;;;;4866084;29;20037;-80
2021/11/02 01:12:27;;;;;;;38.15;17.38;;;;;;;;;;4883269;29;20040;-81
2021/11/02 01:14:54;;;;;;;33.92;15.38;;;;;;;;;;4883244;29;20032;-80
2021/11/02 01:17:22;;;;;;;34.60;15.90;;;;;;;;;;4865821;29;20040;-80
2021/11/02 01:19:49;;;;;;;33.38;15.32;;;;;;;;;;4883070;29;20051;-79
2021/11/02 01:22:17;;;;;;;27.83;15.20;;;;;;;;;;4882544;29;20118;-79
2021/11/02 01:24:44;;;;;;;31.27;16.48;;;;;;;;;;4865800;29;20116;-79
2021/11/02 01:27:11;;;;;;;37.42;16.77;;;;;;;;;;4882492;29;20112;-78
2021/11/02 01:29:38;;;;;;;30.80;15.10;;;;;;;;;;4882446;29;20033;-79
2021/11/02 01:32:04;;;;;;;32.95;16.02;;;;;;;;;;4882771;29;20424;-77
2021/11/02 01:34:33;;;;;;;26.40;14.95;;;;;;;;;;4865560;29;20029;-79
2021/11/02 01:36:59;;;;;;;32.10;16.67;;;;;;;;;;4882351;29;20037;-80
2021/11/02 01:39:27;;;;;;;30.20;15.32;;;;;;;;;;4882645;29;20116;-79
2021/11/02 01:41:54;;;;;;;35.45;16.55;;;;;;;;;;4881992;29;20049;-80
2021/11/02 01:44:21;;;;;;;36.50;17.73;;;;;;;;;;4865443;29;20056;-81
2021/11/02 01:46:48;;;;;;;33.90;16.13;;;;;;;;;;4865632;29;20439;-82
2021/11/02 01:49:18;;;;;;;37.47;16.92;;;;;;;;;;4882077;29;20029;-81
2021/11/02 01:51:44;;;;;;;33.45;15.40;;;;;;;;;;4882581;29;20029;-80
2021/11/02 01:54:12;;;;;;;27.50;14.68;;;;;;;;;;4881930;29;20115;-80
2021/11/02 01:56:39;;;;;;;32.03;15.77;;;;;;;;;;4882008;29;20537;-79
2021/11/02 01:59:06;;;;;;;38.03;16.83;;;;;;;;;;4882402;29;20033;-78
2021/11/02 02:01:49;;;;;;;29.73;15.45;;;;;;;;;;4881967;29;20029;-81
2021/11/02 02:04:29;;;;;;;32.00;14.73;;;;;;;;;;4865123;29;20084;-78
2021/11/02 02:07:14;;;;;;;29.67;15.48;;;;;;;;;;4881869;29;20029;-80
2021/11/02 02:09:49;;;;;;;30.35;16.67;;;;;;;;;;4882382;29;20477;-79
2021/11/02 02:12:24;;;;;;;29.88;15.48;;;;;;;;;;4865026;29;20089;-78
2021/11/02 02:14:59;;;;;;;34.53;16.33;;;;;;;;;;4865033;29;20077;-79
2021/11/02 02:17:30;;;;;;;32.70;16.48;;;;;;;;;;4881257;29;20032;-79
2021/11/02 02:19:58;;;;;;;34.17;16.10;;;;;;;;;;4864966;29;20039;-79
2021/11/02 02:22:41;;;;;;;32.58;15.25;;;;;;;;;;4881666;29;20035;-81
2021/11/02 02:25:18;;;;;;;34.45;16.63;;;;;;;;;;4864974;29;20086;-80
2021/11/02 02:27:45;;;;;;;35.33;15.75;;;;;;;;;;4882137;29;20025;-80
2021/11/02 02:30:14;;;;;;;36.10;16.33;;;;;;;;;;4864822;29;20032;-80
2021/11/02 02:32:43;;;;;;;35.35;15.98;;;;;;;;;;4881768;29;20068;-80
2021/11/02 02:35:11;;;;;;;36.22;16.65;;;;;;;;;;4864578;29;20037;-78
2021/11/02 02:37:40;;;;;;;33.47;16.08;;;;;;;;;;4881107;29;20033;-80
2021/11/02 02:40:07;;;;;;;34.72;17.63;;;;;;;;;;4880841;29;20097;-80
2021/11/02 02:42:35;;;;;;;42.42;17.65;;;;;;;;;;4881089;29;20406;-79
2021/11/02 02:45:02;;;;;;;33.78;16.10;;;;;;;;;;4881030;29;20049;-80
2021/11/02 02:47:30;;;;;;;35.13;17.65;;;;;;;;;;4880896;29;20025;-83
2021/11/02 02:49:58;;;;;;;35.70;16.98;;;;;;;;;;4881265;29;20501;-82
2021/11/02 02:52:26;;;;;;;31.35;16.35;;;;;;;;;;4864114;29;20033;-78
2021/11/02 02:54:55;;;;;;;35.92;16.77;;;;;;;;;;4864019;29;20490;-81
2021/11/02 02:57:24;;;;;;;37.28;17.20;;;;;;;;;;4881185;29;20025;-84
2021/11/02 02:59:51;;;;;;;35.55;18.02;;;;;;;;;;4880597;29;20061;-81
2021/11/02 03:02:20;;;;;;;30.35;16.15;;;;;;;;;;4880617;29;20482;-80
2021/11/02 03:04:48;;;;;;;35.70;17.25;;;;;;;;;;4880549;29;20064;-82
2021/11/02 03:07:16;;;;;;;34.88;16.00;;;;;;;;;;4881026;29;20111;-80
2021/11/02 03:09:44;;;;;;;33.70;16.38;;;;;;;;;;4880453;29;20025;-79
2021/11/02 03:12:11;;;;;;;32.70;16.85;;;;;;;;;;4880382;29;20455;-79
2021/11/02 03:14:54;;;;;;;33.22;15.85;;;;;;;;;;4863683;29;20116;-80
2021/11/02 03:17:28;;;;;;;34.83;15.82;;;;;;;;;;4863655;29;20368;-80
2021/11/02 03:48:02;;;;;;;30.33;15.57;;;;;;;;;;4880286;29;20055;-79
2021/11/02 03:50:56;;;;;;;33.05;16.63;;;;;;;;;;4879903;29;20121;-80
2021/11/02 03:56:23;;;;;;;37.95;17.98;;;;;;;;;;4880128;29;20498;-79
2021/11/02 05:10:49;;;;;;;38.10;18.35;;;;;;;;;;4882991;29;20531;-80
2021/11/02 05:49:26;;;;;;;34.70;17.42;;;;;;;;;;4881916;29;20032;-81
2021/11/02 05:57:28;;;;;;;40.28;17.83;;;;;;;;;;4881588;29;20133;-81
2021/11/02 06:00:00;;;;;;;36.08;17.88;;;;;;;;;;4864591;29;20509;-81
2021/11/02 06:08:02;;;;;;;40.78;18.92;;;;;;;;;;4881761;29;20029;-81
2021/11/02 06:29:48;;;;;;;36.25;18.80;;;;;;;;;;4881207;29;20040;-80
2021/11/02 06:32:22;;;;;;;40.28;19.33;;;;;;;;;;4881012;29;20036;-80
2021/11/02 06:37:52;;;;;;;39.60;19.13;;;;;;;;;;4880751;29;20517;-80
2021/11/02 06:43:09;;;;;;;39.40;20.05;;;;;;;;;;4880896;29;20025;-79
2021/11/02 07:15:14;;;;;;;9.02;4.72;;;;;;;;;;4880749;29;20044;-79
2021/11/02 07:17:03;;;;;;;7.60;3.40;;;;;;;;;;4880661;29;20162;-78
2021/11/02 07:19:26;;;;;;;6.10;3.20;;;;;;;;;;4878530;29;20081;-78
2021/11/02 07:24:50;;;;;;;3.47;1.80;;;;;;;;;;4880295;29;20509;-81
2021/11/02 08:46:09;;;;;;;4.45;0.93;;;;;;;;;;4846762;29;20045;-84
2021/11/02 08:48:04;;;;;;;3.15;1.67;;;;;;;;;;4838734;29;20038;-85
2021/11/02 08:50:42;;;;;;;2.58;0.88;;;;;;;;;;4845396;29;20082;-84
2021/11/02 08:53:10;;;;;;;3.05;1.58;;;;;;;;;;4845101;29;20057;-85
2021/11/02 08:55:36;;;;;;;4.45;1.48;;;;;;;;;;4844933;29;20026;-84
2021/11/02 08:58:03;;;;;;;4.95;1.55;;;;;;;;;;4844737;29;20030;-85
2021/11/02 09:00:30;;;;;;;2.53;1.00;;;;;;;;;;4844896;29;20094;-83
2021/11/02 09:03:05;;;;;;;2.13;1.08;;;;;;;;;;4844708;29;20061;-85
2021/11/02 09:05:35;;;;;;;3.10;1.17;;;;;;;;;;4845572;29;20046;-84
2021/11/02 09:08:02;;;;;;;2.80;1.20;;;;;;;;;;4844976;29;20034;-85
2021/11/02 09:10:29;;;;;;;3.92;1.15;;;;;;;;;;4845018;29;20036;-85
2021/11/02 09:12:56;;;;;;;2.17;0.77;;;;;;;;;;4844597;29;20067;-84
2021/11/02 09:15:27;;;;;;;3.15;0.80;;;;;;;;;;4844684;29;20025;-84
2021/11/02 09:17:54;;;;;;;2.67;0.82;;;;;;;;;;4844530;29;20057;-85
2021/11/02 09:20:20;;;;;;;3.60;1.02;;;;;;;;;;4844085;29;20045;-85
2021/11/02 09:22:47;;;;;;;2.38;0.70;;;;;;;;;;4844520;29;20052;-85
2021/11/02 09:25:14;;;;;;;4.80;1.00;;;;;;;;;;4844215;29;20033;-84
2021/11/02 09:27:41;;;;;;;2.03;0.55;;;;;;;;;;4844253;29;20030;-86
2021/11/02 09:30:10;;;;;;;2.38;0.50;;;;;;;;;;4844378;29;20037;-83
2021/11/02 09:32:37;;;;;;;2.13;0.82;;;;;;;;;;4844299;29;20042;-84
2021/11/02 09:35:04;;;;;;;2.03;0.63;;;;;;;;;;4844441;29;20483;-85
2021/11/02 09:37:35;;;;;;;3.75;1.17;;;;;;;;;;4844507;29;20066;-85
2021/11/02 09:40:30;;;;;;;2.15;0.90;;;;;;;;;;4845209;29;20030;-82
2021/11/02 09:43:18;;;;;;;3.17;1.27;;;;;;;;;;4865724;29;20039;-85
2021/11/02 09:46:03;;;;;;;3.47;1.45;;;;;;;;;;4865496;29;20088;-84
2021/11/02 09:48:51;;;;;;;3.28;1.27;;;;;;;;;;4865510;29;20513;-84
2021/11/02 09:51:20;;;;;;;2.63;1.13;;;;;;;;;;4865450;29;20033;-85
2021/11/02 09:54:12;;;;;;;2.08;1.05;;;;;;;;;;4865339;29;20071;-85
2021/11/02 09:57:00;;;;;;;2.58;0.80;;;;;;;;;;4865465;29;20052;-84
2021/11/02 09:59:46;;;;;;;2.85;0.70;;;;;;;;;;4865103;29;20063;-84
2021/11/02 10:02:33;;;;;;;1.35;0.65;;;;;;;;;;4863825;29;20029;-84
2021/11/02 10:05:07;;;;;;;2.63;0.95;;;;;;;;;;4865240;29;20037;-83
2021/11/02 10:07:56;;;;;;;1.27;0.52;;;;;;;;;;4865340;29;20443;-85
2021/11/02 10:10:26;;;;;;;1.92;0.82;;;;;;;;;;4881896;29;20032;-84
2021/11/02 10:12:52;;;;;;;2.30;0.82;;;;;;;;;;4865046;29;20052;-84
2021/11/02 10:15:19;;;;;;;5.93;1.65;;;;;;;;;;4864371;29;20037;-84
2021/11/02 10:17:49;;;;;;;4.47;1.92;;;;;;;;;;4864910;29;20033;-85
2021/11/02 10:20:21;;;;;;;5.30;2.00;;;;;;;;;;4864774;29;20093;-85
2021/11/02 10:23:05;;;;;;;5.47;2.10;;;;;;;;;;4863888;29;20057;-85
2021/11/02 10:25:32;;;;;;;4.35;1.77;;;;;;;;;;4862887;29;20041;-83
2021/11/02 10:28:01;;;;;;;7.35;2.35;;;;;;;;;;4864699;29;20461;-84
2021/11/02 10:30:33;;;;;;;5.38;2.15;;;;;;;;;;4864663;29;20498;-85
2021/11/02 10:33:04;;;;;;;6.47;2.20;;;;;;;;;;4864786;29;20409;-85
2021/11/02 10:35:44;;;;;;;7.35;2.17;;;;;;;;;;4864687;29;20021;-84
2021/11/02 10:38:18;;;;;;;6.57;2.30;;;;;;;;;;4864149;29;20041;-85
2021/11/02 10:40:51;;;;;;;5.38;2.17;;;;;;;;;;4855319;29;20061;-85
2021/11/02 10:43:54;;;;;;;5.22;1.20;;;;;;;;;;4843231;29;20030;-85
2021/11/02 10:46:23;;;;;;;2.80;1.23;;;;;;;;;;4842967;29;20038;-86
2021/11/02 10:48:50;;;;;;;2.92;1.17;;;;;;;;;;4844836;29;20034;-85
2021/11/02 10:51:22;;;;;;;1.30;0.63;;;;;;;;;;4843295;29;20075;-85
2021/11/02 10:54:12;;;;;;;3.33;1.52;;;;;;;;;;4843009;29;20042;-85
2021/11/02 10:56:38;;;;;;;4.53;1.48;;;;;;;;;;4835579;29;20673;-84
2021/11/02 10:59:06;;;;;;;4.82;1.38;;;;;;;;;;4842917;29;20029;-85
2021/11/02 11:01:33;;;;;;;5.43;2.17;;;;;;;;;;4843887;29;20105;-84
2021/11/02 11:04:00;;;;;;;11.57;2.33;;;;;;;;;;4842726;29;20053;-84
2021/11/02 11:06:28;;;;;;;6.22;2.45;;;;;;;;;;4843846;29;20026;-84
2021/11/02 11:08:54;;;;;;;5.80;2.30;;;;;;;;;;4842540;29;20126;-84
2021/11/02 11:11:22;;;;;;;17.70;2.50;;;;;;;;;;4842600;29;20121;-84
2021/11/02 11:13:49;;;;;;;6.13;2.72;;;;;;;;;;4842556;29;20041;-84
2021/11/02 11:16:16;;;;;;;8.02;2.65;;;;;;;;;;4842132;29;20124;-84
2021/11/02 11:18:52;;;;;;;7.70;2.30;;;;;;;;;;4842645;29;20030;-87
2021/11/02 11:21:19;;;;;;;7.00;2.50;;;;;;;;;;4842219;29;20030;-84
2021/11/02 11:23:49;;;;;;;7.35;2.35;;;;;;;;;;4842248;29;20398;-84
2021/11/02 11:26:17;;;;;;;5.70;2.53;;;;;;;;;;4842074;29;20026;-83
2021/11/02 11:28:44;;;;;;;8.50;2.97;;;;;;;;;;4842106;29;20038;-83
2021/11/02 11:31:10;;;;;;;8.20;2.90;;;;;;;;;;4842155;29;20038;-84
2021/11/02 11:33:38;;;;;;;5.65;1.63;;;;;;;;;;4841971;29;20042;-83
2021/11/02 11:36:05;;;;;;;3.08;1.10;;;;;;;;;;4841684;29;20091;-83
2021/11/02 11:38:43;;;;;;;2.67;1.23;;;;;;;;;;4841717;29;20045;-84
2021/11/02 11:41:10;;;;;;;2.38;0.73;;;;;;;;;;4850793;29;20084;-83
2021/11/02 11:43:36;;;;;;;1.55;0.55;;;;;;;;;;4860286;29;20125;-83
2021/11/02 11:46:04;;;;;;;0.70;0.30;;;;;;;;;;4860448;29;20165;-82
2021/11/02 11:48:32;;;;;;;1.42;0.40;;;;;;;;;;4861398;29;20549;-84
2021/11/02 11:51:00;;;;;;;1.13;0.43;;;;;;;;;;4862287;29;20033;-84
2021/11/02 11:53:27;;;;;;;1.40;0.50;;;;;;;;;;4860512;29;20479;-83
2021/11/02 11:56:07;;;;;;;1.58;0.70;;;;;;;;;;4860179;29;20628;-83
2021/11/02 11:58:34;;;;;;;1.60;0.60;;;;;;;;;;4860148;29;20036;-82
2021/11/02 12:01:21;;;;;;;2.70;0.73;;;;;;;;;;4859900;29;20026;-84
2021/11/02 12:03:57;;;;;;;1.40;0.57;;;;;;;;;;4860037;29;20040;-82
2021/11/02 12:06:34;;;;;;;1.38;0.50;;;;;;;;;;4861599;29;20498;-84
2021/11/02 12:09:06;;;;;;;1.15;0.40;;;;;;;;;;4861529;29;20037;-81
2021/11/02 12:11:33;;;;;;;1.83;0.47;;;;;;;;;;4859860;29;20082;-84
2021/11/02 12:14:07;;;;;;;1.52;0.70;;;;;;;;;;4860314;29;20302;-83
2021/11/02 12:16:43;;;;;;;1.38;0.65;;;;;;;;;;4860809;29;20038;-83
2021/11/02 12:19:15;;;;;;;1.40;0.50;;;;;;;;;;4860070;29;20025;-83
2021/11/02 12:21:42;;;;;;;0.95;0.40;;;;;;;;;;4859773;29;20509;-82
2021/11/02 12:24:10;;;;;;;1.85;0.50;;;;;;;;;;4859806;29;20141;-81
2021/11/02 12:26:47;;;;;;;1.65;0.43;;;;;;;;;;4861052;29;20546;-82
2021/11/02 12:29:23;;;;;;;1.50;0.50;;;;;;;;;;4859875;29;20391;-82
2021/11/02 12:32:00;;;;;;;1.13;0.40;;;;;;;;;;4859772;29;20541;-83
2021/11/02 12:34:27;;;;;;;1.92;0.60;;;;;;;;;;4860195;29;20045;-82
2021/11/02 12:36:55;;;;;;;1.73;0.52;;;;;;;;;;4859743;29;20089;-83
2021/11/02 12:39:25;;;;;;;1.42;0.60;;;;;;;;;;4859790;29;20055;-83
2021/11/02 12:41:52;;;;;;;1.00;0.60;;;;;;;;;;4875012;29;20132;-82
2021/11/02 12:44:22;;;;;;;1.35;0.70;;;;;;;;;;4862721;29;20025;-84
2021/11/02 12:46:48;;;;;;;3.03;0.63;;;;;;;;;;4862938;29;20029;-83
2021/11/02 12:49:16;;;;;;;4.45;0.77;;;;;;;;;;4862874;29;20443;-84
2021/11/02 12:51:48;;;;;;;1.52;0.77;;;;;;;;;;4862859;29;20033;-82
2021/11/02 12:54:16;;;;;;;2.80;1.10;;;;;;;;;;4879509;29;20394;-83
2021/11/02 12:56:51;;;;;;;1.50;0.60;;;;;;;;;;4862622;29;20445;-83
2021/11/02 12:59:23;;;;;;;2.45;0.90;;;;;;;;;;4862941;29;20033;-83
2021/11/02 13:01:52;;;;;;;1.52;0.65;;;;;;;;;;4864756;29;20029;-84
2021/11/02 13:04:19;;;;;;;2.22;0.60;;;;;;;;;;4865999;29;20033;-83
2021/11/02 13:06:52;;;;;;;1.90;0.70;;;;;;;;;;4866176;29;20052;-83
2021/11/02 13:09:18;;;;;;;;;;;;;;;;;;4866229;29;20495;-81
2021/11/02 13:11:45;;;;;;;0.95;0.30;;;;;;;;;;4865682;29;19994;-82
2021/11/02 13:14:14;;;;;;;1.00;0.40;;;;;;;;;;4865257;29;20037;-82
2021/11/02 13:16:53;;;;;;;1.65;0.30;;;;;;;;;;4865542;29;20064;-83
2021/11/02 13:19:21;;;;;;;0.85;0.40;;;;;;;;;;4863656;29;20049;-83
2021/11/02 13:21:48;;;;;;;1.55;0.50;;;;;;;;;;4882027;29;20029;-82
2021/11/02 13:24:16;;;;;;;1.52;0.60;;;;;;;;;;4879463;29;20027;-82
2021/11/02 13:26:44;;;;;;;2.50;0.50;;;;;;;;;;4865598;29;20040;-83
2021/11/02 13:29:11;;;;;;;1.23;0.50;;;;;;;;;;4865674;29;20405;-82
2021/11/02 13:31:38;;;;;;;2.30;0.52;;;;;;;;;;4882347;29;20557;-82
2021/11/02 13:34:15;;;;;;;1.20;0.55;;;;;;;;;;4865380;29;20041;-82
2021/11/02 13:36:41;;;;;;;1.58;0.60;;;;;;;;;;4865609;29;20033;-82
2021/11/02 13:39:08;;;;;;;1.63;0.63;;;;;;;;;;4865585;29;20051;-82
2021/11/02 13:41:36;;;;;;;1.30;0.70;;;;;;;;;;4850255;29;20136;-82
2021/11/02 13:44:05;;;;;;;1.85;0.77;;;;;;;;;;4843969;29;20472;-82
2021/11/02 13:46:44;;;;;;;1.42;0.60;;;;;;;;;;4843939;29;20066;-81
2021/11/02 13:49:11;;;;;;;5.32;0.80;;;;;;;;;;4843621;29;20558;-82
2021/11/02 13:51:38;;;;;;;1.08;0.50;;;;;;;;;;4845018;29;20090;-82
2021/11/02 13:54:05;;;;;;;1.23;0.45;;;;;;;;;;4843583;29;20118;-81
2021/11/02 13:56:32;;;;;;;1.08;0.40;;;;;;;;;;4845163;29;20058;-83
2021/11/02 13:58:59;;;;;;;0.80;0.38;;;;;;;;;;4843756;29;20090;-82
2021/11/02 14:01:37;;;;;;;3.97;0.38;;;;;;;;;;4843577;29;20093;-82
2021/11/02 14:04:09;;;;;;;2.22;0.50;;;;;;;;;;4844729;29;20445;-82
2021/11/02 14:06:37;;;;;;;1.25;0.30;;;;;;;;;;4843518;29;20055;-83
2021/11/02 14:09:04;;;;;;;0.85;0.40;;;;;;;;;;4843580;29;20033;-83
2021/11/02 14:11:32;;;;;;;1.08;0.47;;;;;;;;;;4843396;29;20034;-84
2021/11/02 14:13:58;;;;;;;1.83;0.50;;;;;;;;;;4842458;29;20433;-82
2021/11/02 14:16:29;;;;;;;0.75;0.30;;;;;;;;;;4843585;29;20026;-82
2021/11/02 14:18:55;;;;;;;2.65;0.60;;;;;;;;;;4843437;29;20057;-84
2021/11/02 14:21:40;;;;;;;2.65;0.82;;;;;;;;;;4843251;29;20465;-82
2021/11/02 14:24:06;;;;;;;1.52;0.70;;;;;;;;;;4843175;29;20042;-81
2021/11/02 14:26:35;;;;;;;1.70;0.80;;;;;;;;;;4843307;29;20112;-81
2021/11/02 14:29:06;;;;;;;1.77;0.70;;;;;;;;;;4843163;29;20125;-84
2021/11/02 14:31:38;;;;;;;1.80;0.90;;;;;;;;;;4843156;29;20050;-84
2021/11/02 14:34:07;;;;;;;2.08;0.82;;;;;;;;;;4842863;29;20094;-81
2021/11/02 14:36:40;;;;;;;3.60;0.82;;;;;;;;;;4842934;29;20111;-82
2021/11/02 14:39:11;;;;;;;2.15;0.80;;;;;;;;;;4843516;29;20130;-82
2021/11/02 14:41:40;;;;;;;;;;;;;;;;;;4855528;29;20061;-82
2021/11/02 14:44:23;;;;;;;1.60;0.95;;;;;;;;;;4873603;29;19927;-81
2021/11/02 14:46:50;;;;;;;1.90;0.90;;;;;;;;;;4862884;29;20494;-82
2021/11/02 14:49:29;;;;;;;1.52;0.80;;;;;;;;;;4862617;29;20034;-82
2021/11/02 14:51:59;;;;;;;3.22;1.10;;;;;;;;;;4861208;29;20029;-82
2021/11/02 14:54:29;;;;;;;2.38;1.00;;;;;;;;;;4861110;29;20044;-82
2021/11/02 14:57:15;;;;;;;2.03;1.02;;;;;;;;;;4861770;29;20044;-82
2021/11/02 14:59:48;;;;;;;1.50;0.70;;;;;;;;;;4862428;29;20034;-83
2021/11/02 15:02:17;;;;;;;9.38;0.90;;;;;;;;;;4863368;29;20037;-84
2021/11/02 15:04:53;;;;;;;3.35;0.90;;;;;;;;;;4861183;29;20037;-83
2021/11/02 15:07:20;;;;;;;1.83;0.75;;;;;;;;;;4862384;29;20060;-84
2021/11/02 15:09:47;;;;;;;1.55;0.80;;;;;;;;;;4864441;29;20049;-84
2021/11/02 15:12:14;;;;;;;1.50;0.68;;;;;;;;;;4860901;29;20044;-84
2021/11/02 15:14:41;;;;;;;0.90;0.50;;;;;;;;;;4860969;29;20097;-83
2021/11/02 15:17:11;;;;;;;1.60;0.60;;;;;;;;;;4862005;29;20017;-82
2021/11/02 15:19:38;;;;;;;1.15;0.40;;;;;;;;;;4860752;29;20029;-82
2021/11/02 15:22:07;;;;;;;0.70;0.30;;;;;;;;;;4861196;29;20021;-82
2021/11/02 15:24:34;;;;;;;2.10;0.52;;;;;;;;;;4864185;29;20531;-82
2021/11/02 15:27:11;;;;;;;1.05;0.50;;;;;;;;;;4863699;29;20033;-82
2021/11/02 15:29:42;;;;;;;2.08;0.60;;;;;;;;;;4862245;29;20080;-82
2021/11/02 15:32:11;;;;;;;1.00;0.50;;;;;;;;;;4860431;29;20030;-81
2021/11/02 15:34:37;;;;;;;1.67;0.73;;;;;;;;;;4860466;29;20136;-82
2021/11/02 15:37:23;;;;;;;2.83;1.08;;;;;;;;;;4860064;29;20431;-82
2021/11/02 15:39:54;;;;;;;1.92;0.93;;;;;;;;;;4847805;29;20038;-83
2021/11/02 15:42:26;;;;;;;2.15;0.90;;;;;;;;;;4841694;29;20057;-82
2021/11/02 15:44:54;;;;;;;2.05;1.02;;;;;;;;;;4842141;29;20041;-82
2021/11/02 15:47:20;;;;;;;1.92;0.85;;;;;;;;;;4841897;29;20066;-83
2021/11/02 15:49:53;;;;;;;2.58;1.00;;;;;;;;;;4843912;29;20034;-83
2021/11/02 15:52:20;;;;;;;2.50;1.10;;;;;;;;;;4842768;29;20029;-85
2021/11/02 15:54:49;;;;;;;7.65;2.88;;;;;;;;;;4843287;29;20384;-83
2021/11/02 15:57:16;;;;;;;12.68;4.85;;;;;;;;;;4845447;29;20030;-84
2021/11/02 16:00:02;;;;;;;31.13;13.05;;;;;;;;;;4851075;29;20144;-85
2021/11/02 16:02:35;;;;;;;19.90;8.80;;;;;;;;;;4843171;29;20030;-85
2021/11/02 16:05:20;;;;;;;6.85;3.45;;;;;;;;;;4843453;29;20061;-84
2021/11/02 16:07:47;;;;;;;4.78;3.00;;;;;;;;;;4842383;29;20540;-86
2021/11/02 16:10:13;;;;;;;2.97;1.92;;;;;;;;;;4842302;29;20034;-85
2021/11/02 16:12:40;;;;;;;3.67;2.42;;;;;;;;;;4842046;29;20033;-86
2021/11/02 16:15:08;;;;;;;4.38;2.65;;;;;;;;;;4842153;29;20100;-88
2021/11/02 16:17:45;;;;;;;4.63;2.30;;;;;;;;;;4842279;29;20369;-87
2021/11/02 16:20:17;;;;;;;4.05;2.40;;;;;;;;;;4842252;29;20061;-86
2021/11/02 16:22:44;;;;;;;3.53;2.00;;;;;;;;;;4842467;29;20030;-86
2021/11/02 16:25:10;;;;;;;2.97;1.67;;;;;;;;;;4843482;29;20038;-86
2021/11/02 16:27:37;;;;;;;3.83;1.33;;;;;;;;;;4842319;29;20033;-86
2021/11/02 16:30:15;;;;;;;2.15;1.15;;;;;;;;;;4842216;29;20086;-85
2021/11/02 16:32:44;;;;;;;3.20;1.20;;;;;;;;;;4842149;29;20041;-85
2021/11/02 16:35:10;;;;;;;2.17;1.20;;;;;;;;;;4842476;29;20112;-85
2021/11/02 16:37:38;;;;;;;2.78;1.35;;;;;;;;;;4845601;29;20510;-85
2021/11/02 16:40:26;;;;;;;3.33;1.52;;;;;;;;;;4845698;29;20030;-86
2021/11/02 16:43:01;;;;;;;2.92;1.67;;;;;;;;;;4848849;29;20093;-88
2021/11/02 16:45:34;;;;;;;4.47;2.38;;;;;;;;;;4848747;29;20530;-85
2021/11/02 16:48:02;;;;;;;4.22;2.10;;;;;;;;;;4848753;29;20034;-86
2021/11/02 16:50:29;;;;;;;3.85;2.10;;;;;;;;;;4848719;29;20534;-85
2021/11/02 16:53:14;;;;;;;3.55;2.15;;;;;;;;;;4848587;29;20201;-85
2021/11/02 16:55:41;;;;;;;3.90;1.98;;;;;;;;;;4865418;29;20033;-84
2021/11/02 16:58:20;;;;;;;3.72;2.10;;;;;;;;;;4848594;29;20057;-86
2021/11/02 17:00:47;;;;;;;17.33;2.70;;;;;;;;;;4848330;29;20082;-85
2021/11/02 17:03:19;;;;;;;2.75;1.80;;;;;;;;;;4848461;29;20494;-85
2021/11/02 17:05:47;;;;;;;3.85;1.90;;;;;;;;;;4848300;29;20089;-86
2021/11/02 17:08:14;;;;;;;8.07;2.20;;;;;;;;;;4848241;29;20058;-84
2021/11/02 17:10:43;;;;;;;3.30;2.10;;;;;;;;;;4848343;29;20048;-84
2021/11/02 17:13:20;;;;;;;8.88;2.50;;;;;;;;;;4848356;29;20509;-84
2021/11/02 17:16:02;;;;;;;5.88;2.75;;;;;;;;;;4847993;29;20033;-83
2021/11/02 17:18:41;;;;;;;6.32;2.65;;;;;;;;;;4848446;29;20034;-84
2021/11/02 17:21:08;;;;;;;7.40;2.47;;;;;;;;;;4848662;29;20117;-84
2021/11/02 17:23:35;;;;;;;6.60;3.22;;;;;;;;;;4847713;29;20390;-83
2021/11/02 17:26:02;;;;;;;8.50;2.85;;;;;;;;;;4847956;29;20138;-86
2021/11/02 17:28:29;;;;;;;24.20;3.17;;;;;;;;;;4847886;29;20387;-83
2021/11/02 17:30:58;;;;;;;9.43;4.68;;;;;;;;;;4847674;29;20030;-85
2021/11/02 17:33:25;;;;;;;20.27;9.93;;;;;;;;;;4864734;29;20037;-84
2021/11/02 17:35:51;;;;;;;18.48;9.05;;;;;;;;;;4847853;29;20467;-85
2021/11/02 17:38:24;;;;;;;17.80;9.43;;;;;;;;;;4850164;29;20085;-84
2021/11/02 17:40:52;;;;;;;15.88;8.10;;;;;;;;;;4844671;29;20062;-84
2021/11/02 17:43:18;;;;;;;17.27;8.65;;;;;;;;;;4845349;29;20032;-84
2021/11/02 17:45:45;;;;;;;10.98;6.70;;;;;;;;;;4845212;29;20032;-85
2021/11/02 17:48:15;;;;;;;14.85;7.82;;;;;;;;;;4844334;29;20445;-84
2021/11/02 17:50:42;;;;;;;15.25;7.75;;;;;;;;;;4844066;29;20483;-85
2021/11/02 17:53:08;;;;;;;13.52;6.90;;;;;;;;;;4843915;29;20074;-84
2021/11/02 17:55:35;;;;;;;12.90;7.25;;;;;;;;;;4843848;29;20030;-84
2021/11/02 17:58:02;;;;;;;13.10;6.57;;;;;;;;;;4845075;29;20034;-84
2021/11/02 18:00:29;;;;;;;12.48;5.82;;;;;;;;;;4843912;29;20034;-84
2021/11/02 18:02:56;;;;;;;12.85;6.72;;;;;;;;;;4843889;29;20093;-85
2021/11/02 18:05:24;;;;;;;11.80;5.85;;;;;;;;;;4843952;29;20030;-86
2021/11/02 18:07:50;;;;;;;10.63;5.82;;;;;;;;;;4843987;29;20038;-86
2021/11/02 18:10:17;;;;;;;22.23;6.63;;;;;;;;;;4843895;29;20073;-86
2021/11/02 18:12:44;;;;;;;11.88;5.15;;;;;;;;;;4844019;29;20032;-86
2021/11/02 18:15:10;;;;;;;8.45;4.82;;;;;;;;;;4843826;29;20480;-85
2021/11/02 18:17:44;;;;;;;9.40;4.95;;;;;;;;;;4843958;29;20049;-85
2021/11/02 18:20:10;;;;;;;10.27;4.90;;;;;;;;;;4844104;29;20400;-85
2021/11/02 18:22:38;;;;;;;13.50;5.75;;;;;;;;;;4843522;29;20034;-83
2021/11/02 18:25:05;;;;;;;14.18;6.75;;;;;;;;;;4844634;29;20038;-83
2021/11/02 18:27:31;;;;;;;11.35;6.70;;;;;;;;;;4842687;29;20094;-84
2021/11/02 18:29:57;;;;;;;16.95;7.50;;;;;;;;;;4843621;29;20050;-85
2021/11/02 18:32:24;;;;;;;20.77;8.20;;;;;;;;;;4856238;29;20025;-84
2021/11/02 18:34:51;;;;;;;16.52;7.05;;;;;;;;;;4861246;29;20133;-83
2021/11/02 18:37:18;;;;;;;18.50;9.68;;;;;;;;;;4861239;29;20490;-84
2021/11/02 18:39:47;;;;;;;15.95;7.32;;;;;;;;;;4860957;29;20128;-86
2021/11/02 18:42:14;;;;;;;14.52;6.60;;;;;;;;;;4860895;29;20124;-83
2021/11/02 18:44:40;;;;;;;15.68;8.35;;;;;;;;;;4860701;29;20129;-84
2021/11/02 18:47:06;;;;;;;23.30;6.72;;;;;;;;;;4861126;29;20044;-83
2021/11/02 18:49:33;;;;;;;24.17;9.32;;;;;;;;;;4861479;29;20069;-83
2021/11/02 18:52:01;;;;;;;17.80;8.57;;;;;;;;;;4862062;29;20470;-86
2021/11/02 18:54:27;;;;;;;21.10;9.73;;;;;;;;;;4860653;29;20061;-87
2021/11/02 18:56:53;;;;;;;18.67;7.90;;;;;;;;;;4862890;29;20489;-87
2021/11/02 18:59:20;;;;;;;19.67;8.57;;;;;;;;;;4861103;29;20147;-87
2021/11/02 19:01:47;;;;;;;18.00;9.20;;;;;;;;;;4862805;29;20026;-86
2021/11/02 19:04:14;;;;;;;17.80;7.72;;;;;;;;;;4863494;29;20499;-88
2021/11/02 19:06:40;;;;;;;15.52;7.57;;;;;;;;;;4861831;29;20041;-88
2021/11/02 19:09:07;;;;;;;15.00;7.65;;;;;;;;;;4861710;29;20398;-83
2021/11/02 19:11:33;;;;;;;16.45;7.53;;;;;;;;;;4861732;29;20093;-88
2021/11/02 19:14:01;;;;;;;28.50;7.75;;;;;;;;;;4862626;29;20072;-88
2021/11/02 19:16:27;;;;;;;18.08;7.97;;;;;;;;;;4861329;29;20025;-87
2021/11/02 19:18:54;;;;;;;15.40;7.00;;;;;;;;;;4861375;29;20033;-84
2021/11/02 19:21:21;;;;;;;18.45;8.05;;;;;;;;;;4861361;29;20089;-86
2021/11/02 19:23:47;;;;;;;12.35;6.85;;;;;;;;;;4861326;29;20116;-84
2021/11/02 19:26:14;;;;;;;17.05;7.80;;;;;;;;;;4861114;29;20061;-83
2021/11/02 19:28:40;;;;;;;14.65;7.53;;;;;;;;;;4861292;29;20093;-88
2021/11/02 19:31:08;;;;;;;20.38;9.88;;;;;;;;;;4862875;29;20029;-83
2021/11/02 19:33:34;;;;;;;21.58;9.10;;;;;;;;;;4861182;29;20044;-85
2021/11/02 19:36:01;;;;;;;15.20;8.27;;;;;;;;;;4861310;29;20483;-86
2021/11/02 19:38:27;;;;;;;16.60;8.20;;;;;;;;;;4861151;29;20030;-88
2021/11/02 19:40:53;;;;;;;15.02;7.63;;;;;;;;;;4861146;29;20054;-88